createdAt,value
2019-04-06T00:02:11.004Z,78.17
2019-04-06T00:04:39.229Z,61.25
2019-04-06T00:07:07.478Z,73.55
2019-04-06T00:09:35.711Z,78.62
2019-04-06T00:12:03.876Z,80.72
2019-04-06T00:14:32.060Z,90.38
2019-04-06T00:17:00.347Z,90.35
2019-04-06T00:19:28.606Z,91.85
2019-04-06T00:21:56.758Z,93.70
2019-04-06T00:24:25.037Z,91.12
2019-04-06T00:26:53.281Z,88.20
2019-04-06T00:29:21.523Z,98.50
2019-04-06T00:31:56.800Z,93.72
2019-04-06T00:34:25.074Z,88.92
2019-04-06T00:36:53.228Z,81.37
2019-04-06T00:39:21.477Z,84.83
2019-04-06T00:41:49.716Z,84.17
2019-04-06T00:44:17.894Z,70.75
2019-04-06T00:46:46.114Z,71.55
2019-04-06T00:49:14.355Z,108.70
2019-04-06T00:51:42.488Z,91.32
2019-04-06T00:54:10.638Z,98.75
2019-04-06T00:56:38.778Z,81.95
2019-04-06T00:59:07.065Z,69.00
2019-04-06T01:01:35.228Z,88.15
2019-04-06T01:04:03.415Z,80.28
2019-04-06T01:06:31.578Z,55.25
2019-04-06T01:08:59.766Z,83.67
2019-04-06T01:11:27.973Z,90.65
2019-04-06T01:13:56.170Z,99.50
2019-04-06T01:16:24.375Z,53.80
2019-04-06T01:18:52.522Z,87.05
2019-04-06T01:21:20.741Z,81.85
2019-04-06T01:23:48.902Z,85.22
2019-04-06T01:26:17.098Z,88.47
2019-04-06T01:28:45.318Z,99.70
2019-04-06T01:31:13.537Z,93.75
2019-04-06T01:33:41.815Z,77.75
2019-04-06T01:36:10.043Z,78.05
2019-04-06T01:38:38.201Z,75.70
2019-04-06T01:41:06.394Z,82.62
2019-04-06T01:43:34.541Z,73.92
2019-04-06T01:46:02.739Z,90.47
2019-04-06T01:48:30.934Z,72.22
2019-04-06T01:50:59.181Z,106.30
2019-04-06T01:53:27.361Z,99.37
2019-04-06T01:55:55.579Z,90.30
2019-04-06T01:58:23.803Z,121.50
2019-04-06T02:01:23.134Z,85.55
2019-04-06T02:03:51.375Z,118.47
2019-04-06T02:06:19.587Z,108.57
2019-04-06T02:08:47.761Z,101.22
2019-04-06T02:11:15.987Z,118.42
2019-04-06T02:13:44.136Z,99.52
2019-04-06T02:16:12.416Z,106.03
2019-04-06T02:18:40.539Z,67.42
2019-04-06T02:21:08.748Z,96.10
2019-04-06T02:23:36.960Z,101.33
2019-04-06T02:26:05.090Z,94.28
2019-04-06T02:28:33.271Z,120.55
2019-04-06T02:31:06.716Z,118.50
2019-04-06T02:34:03.776Z,116.28
2019-04-06T02:37:08.899Z,110.88
2019-04-06T02:39:53.742Z,104.80
2019-04-06T02:42:26.583Z,119.40
2019-04-06T02:44:54.684Z,106.20
2019-04-06T02:47:22.930Z,125.58
2019-04-06T02:49:51.164Z,110.95
2019-04-06T02:52:19.356Z,98.37
2019-04-06T02:54:47.555Z,106.43
2019-04-06T02:57:15.885Z,109.65
2019-04-06T02:59:44.847Z,115.52
2019-04-06T03:02:13.223Z,95.17
2019-04-06T03:04:41.503Z,106.63
2019-04-06T03:07:10.405Z,125.33
2019-04-06T03:09:38.642Z,87.95
2019-04-06T03:12:06.976Z,88.27
2019-04-06T03:14:35.203Z,90.50
2019-04-06T03:17:03.347Z,99.07
2019-04-06T03:19:31.518Z,100.50
2019-04-06T03:21:59.637Z,102.17
2019-04-06T03:24:27.802Z,91.95
2019-04-06T03:27:02.145Z,85.35
2019-04-06T03:29:25.867Z,96.50
2019-04-06T03:31:54.135Z,103.65
2019-04-06T03:34:23.098Z,96.70
2019-04-06T03:36:51.518Z,119.72
2019-04-06T03:39:19.687Z,118.05
2019-04-06T03:41:47.879Z,111.37
2019-04-06T03:44:16.038Z,107.92
2019-04-06T03:46:44.426Z,102.85
2019-04-06T03:49:12.773Z,112.77
2019-04-06T03:51:40.931Z,104.65
2019-04-06T03:54:09.089Z,101.65
2019-04-06T03:56:37.469Z,111.72
2019-04-06T03:59:05.684Z,86.25
2019-04-06T04:01:33.837Z,103.70
2019-04-06T04:04:02.016Z,97.92
2019-04-06T04:06:30.288Z,102.07
2019-04-06T04:08:58.633Z,106.92
2019-04-06T04:11:26.817Z,104.63
2019-04-06T04:13:55.204Z,87.88
2019-04-06T04:16:23.448Z,97.95
2019-04-06T04:18:51.691Z,102.87
2019-04-06T04:21:19.834Z,103.80
2019-04-06T04:23:48.045Z,107.60
2019-04-06T04:26:16.151Z,96.90
2019-04-06T04:28:44.322Z,86.80
2019-04-06T04:31:12.502Z,95.32
2019-04-06T04:33:40.682Z,102.82
2019-04-06T04:36:08.880Z,101.47
2019-04-06T04:38:37.029Z,90.60
2019-04-06T04:41:05.340Z,98.47
2019-04-06T04:43:33.605Z,92.82
2019-04-06T04:46:01.821Z,108.92
2019-04-06T04:48:30.117Z,101.45
2019-04-06T04:50:58.203Z,103.20
2019-04-06T04:53:26.392Z,110.37
2019-04-06T04:55:54.559Z,99.42
2019-04-06T04:58:22.718Z,89.05
2019-04-06T05:00:51.183Z,101.55
2019-04-06T05:03:19.511Z,110.55
2019-04-06T05:05:47.644Z,106.55
2019-04-06T05:08:15.843Z,93.67
2019-04-06T05:10:44.401Z,103.58
2019-04-06T05:13:12.610Z,101.47
2019-04-06T05:16:16.825Z,95.90
2019-04-06T05:18:45.070Z,101.82
2019-04-06T05:21:13.896Z,98.58
2019-04-06T05:23:42.028Z,103.53
2019-04-06T05:26:10.165Z,86.85
2019-04-06T05:28:38.281Z,93.40
2019-04-06T05:31:06.481Z,86.82
2019-04-06T05:33:34.826Z,99.35
2019-04-06T05:36:03.069Z,85.32
2019-04-06T05:38:31.219Z,85.40
2019-04-06T05:40:59.389Z,80.57
2019-04-06T05:43:27.672Z,79.90
2019-04-06T05:45:55.879Z,78.57
2019-04-06T05:48:24.106Z,79.92
2019-04-06T05:50:52.191Z,72.78
2019-04-06T05:53:20.410Z,72.67
2019-04-06T05:55:48.569Z,76.40
2019-04-06T05:58:16.817Z,68.60
2019-04-06T06:00:44.961Z,62.62
2019-04-06T06:03:15.364Z,74.10
2019-04-06T06:05:42.951Z,79.82
2019-04-06T06:08:11.348Z,65.17
2019-04-06T06:10:39.495Z,68.25
2019-04-06T06:13:07.647Z,77.27
2019-04-06T06:15:35.807Z,83.35
2019-04-06T06:18:27.395Z,70.80
2019-04-06T06:20:54.378Z,91.75
2019-04-06T06:23:22.458Z,71.65
2019-04-06T06:25:50.606Z,68.75
2019-04-06T06:28:18.835Z,81.45
2019-04-06T06:30:46.935Z,63.63
2019-04-06T06:33:15.099Z,70.65
2019-04-06T06:35:43.256Z,65.67
2019-04-06T06:38:11.611Z,68.35
2019-04-06T06:40:39.824Z,69.62
2019-04-06T06:43:08.035Z,55.35
2019-04-06T06:45:36.250Z,65.52
2019-04-06T06:48:04.490Z,51.95
2019-04-06T06:50:34.582Z,59.00
2019-04-06T06:53:02.499Z,58.42
2019-04-06T06:55:30.705Z,57.35
2019-04-06T06:57:59.128Z,59.53
2019-04-06T07:00:27.269Z,71.05
2019-04-06T07:02:55.413Z,54.10
2019-04-06T07:05:23.644Z,63.87
2019-04-06T07:07:51.917Z,62.62
2019-04-06T07:10:20.105Z,56.23
2019-04-06T07:12:48.336Z,61.70
2019-04-06T07:15:16.615Z,59.53
2019-04-06T07:17:44.807Z,62.17
2019-04-06T07:20:13.186Z,56.55
2019-04-06T07:22:41.374Z,58.45
2019-04-06T07:25:09.630Z,57.58
2019-04-06T07:27:38.025Z,51.00
2019-04-06T07:30:07.200Z,60.20
2019-04-06T07:32:35.394Z,57.30
2019-04-06T07:35:03.783Z,55.63
2019-04-06T07:37:31.876Z,59.77
2019-04-06T07:40:00.125Z,50.98
2019-04-06T07:42:28.188Z,62.67
2019-04-06T07:44:56.438Z,46.68
2019-04-06T07:47:24.738Z,50.17
2019-04-06T07:49:52.881Z,58.98
2019-04-06T07:52:21.127Z,49.48
2019-04-06T07:54:49.354Z,57.23
2019-04-06T07:57:17.554Z,54.25
2019-04-06T07:59:45.802Z,52.00
2019-04-06T08:02:14.141Z,57.40
2019-04-06T08:04:42.372Z,54.25
2019-04-06T08:07:10.620Z,50.63
2019-04-06T08:09:38.836Z,52.65
2019-04-06T08:12:07.033Z,43.38
2019-04-06T08:14:35.218Z,42.90
2019-04-06T08:17:03.379Z,43.75
2019-04-06T08:19:31.826Z,50.08
2019-04-06T08:22:00.266Z,48.90
2019-04-06T08:24:28.487Z,50.23
2019-04-06T08:26:56.727Z,49.40
2019-04-06T08:29:24.939Z,53.33
2019-04-06T08:31:53.052Z,46.08
2019-04-06T08:34:23.342Z,44.83
2019-04-06T08:39:20.100Z,46.92
2019-04-06T08:41:48.273Z,48.75
2019-04-06T08:44:16.433Z,47.70
2019-04-06T08:46:44.652Z,48.48
2019-04-06T08:49:12.889Z,46.45
2019-04-06T08:51:41.065Z,39.38
2019-04-06T08:54:09.867Z,47.73
2019-04-06T08:56:38.027Z,46.10
2019-04-06T08:59:11.967Z,43.80
2019-04-06T09:01:36.235Z,46.98
2019-04-06T09:04:04.417Z,55.25
2019-04-06T09:06:32.844Z,47.10
2019-04-06T09:09:01.037Z,45.95
2019-04-06T09:11:29.194Z,45.25
2019-04-06T09:13:57.437Z,43.08
2019-04-06T09:16:25.628Z,48.70
2019-04-06T09:18:53.944Z,47.15
2019-04-06T09:21:25.002Z,41.68
2019-04-06T09:23:53.228Z,43.83
2019-04-06T09:26:24.837Z,47.85
2019-04-06T09:28:53.009Z,53.48
2019-04-06T09:31:21.145Z,39.48
2019-04-06T09:33:49.750Z,38.70
2019-04-06T09:36:18.376Z,41.95
2019-04-06T09:38:46.991Z,33.58
2019-04-06T09:41:15.196Z,43.25
2019-04-06T09:43:43.679Z,27.40
2019-04-06T09:46:40.122Z,41.40
2019-04-06T09:49:14.923Z,30.95
2019-04-06T09:52:05.009Z,37.53
2019-04-06T09:54:52.136Z,33.40
2019-04-06T09:57:38.114Z,40.08
2019-04-06T10:00:15.665Z,41.53
2019-04-06T10:03:01.097Z,38.28
2019-04-06T10:05:57.159Z,40.58
2019-04-06T10:08:50.257Z,32.95
2019-04-06T10:11:32.384Z,36.28
2019-04-06T10:14:26.284Z,41.42
2019-04-06T10:17:19.409Z,39.53
2019-04-06T10:19:56.731Z,35.92
2019-04-06T10:22:40.791Z,33.23
2019-04-06T10:25:28.028Z,29.48
2019-04-06T10:28:24.447Z,31.07
2019-04-06T10:31:12.248Z,33.13
2019-04-06T10:34:11.323Z,32.15
2019-04-06T10:37:01.540Z,25.70
2019-04-06T10:39:57.670Z,26.80
2019-04-06T10:42:48.957Z,24.90
2019-04-06T10:45:36.155Z,26.95
2019-04-06T10:48:25.012Z,28.17
2019-04-06T10:51:10.056Z,29.37
2019-04-06T10:53:45.246Z,23.85
2019-04-06T10:56:41.358Z,26.00
2019-04-06T10:59:43.691Z,19.23
2019-04-06T11:02:29.265Z,26.77
2019-04-06T11:05:19.065Z,28.55
2019-04-06T11:07:55.463Z,28.60
2019-04-06T11:10:42.720Z,22.22
2019-04-06T11:13:28.444Z,23.52
2019-04-06T11:16:10.458Z,26.33
2019-04-06T11:18:56.123Z,24.45
2019-04-06T11:21:42.000Z,21.93
2019-04-06T11:24:32.146Z,19.07
2019-04-06T11:27:18.038Z,16.95
2019-04-06T11:30:14.966Z,19.57
2019-04-06T11:33:02.639Z,18.10
2019-04-06T11:35:54.324Z,17.05
2019-04-06T11:38:35.946Z,20.37
2019-04-06T11:41:35.234Z,13.48
2019-04-06T11:44:14.333Z,13.32
2019-04-06T11:46:55.950Z,12.43
2019-04-06T11:49:38.644Z,12.70
2019-04-06T11:52:16.640Z,12.65
2019-04-06T11:55:00.741Z,14.13
2019-04-06T11:57:35.856Z,9.78
2019-04-06T12:00:24.478Z,11.35
2019-04-06T12:02:59.366Z,10.25
2019-04-06T12:05:55.509Z,11.50
2019-04-06T12:08:57.688Z,11.88
2019-04-06T12:11:45.112Z,13.00
2019-04-06T12:14:35.182Z,11.03
2019-04-06T12:17:22.328Z,12.75
2019-04-06T12:20:04.191Z,16.20
2019-04-06T12:23:06.718Z,10.95
2019-04-06T12:25:52.547Z,11.22
2019-04-06T12:28:27.918Z,12.30
2019-04-06T12:31:30.266Z,14.07
2019-04-06T12:34:12.737Z,9.85
2019-04-06T12:36:58.672Z,10.80
2019-04-06T12:39:52.530Z,10.45
2019-04-06T12:42:26.498Z,8.25
2019-04-06T12:45:12.092Z,8.88
2019-04-06T12:47:57.568Z,10.05
2019-04-06T12:50:59.438Z,10.18
2019-04-06T12:53:46.597Z,7.05
2019-04-06T12:56:49.297Z,10.23
2019-04-06T12:59:39.185Z,11.28
2019-04-06T13:02:27.147Z,7.65
2019-04-06T13:05:23.433Z,8.23
2019-04-06T13:08:22.593Z,6.60
2019-04-06T13:11:06.699Z,8.25
2019-04-06T13:13:46.532Z,9.53
2019-04-06T13:16:32.233Z,5.87
2019-04-06T13:19:18.075Z,7.65
2019-04-06T13:22:05.608Z,7.42
2019-04-06T13:24:55.575Z,4.87
2019-04-06T13:27:33.784Z,6.83
2019-04-06T13:30:21.008Z,13.05
2019-04-06T13:33:17.363Z,5.53
2019-04-06T13:36:07.267Z,8.80
2019-04-06T13:38:46.335Z,9.03
2019-04-06T13:41:51.684Z,4.87
2019-04-06T13:44:48.111Z,7.10
2019-04-06T13:47:38.123Z,6.62
2019-04-06T13:50:28.631Z,9.98
2019-04-06T13:53:15.854Z,5.22
2019-04-06T13:56:06.155Z,6.22
2019-04-06T13:58:43.495Z,7.42
2019-04-06T14:01:30.471Z,5.78
2019-04-06T14:04:20.433Z,6.80
2019-04-06T14:07:25.740Z,8.33
2019-04-06T14:10:08.869Z,10.93
2019-04-06T14:12:58.833Z,6.20
2019-04-06T14:15:38.245Z,8.38
2019-04-06T14:18:16.762Z,6.47
2019-04-06T14:21:15.882Z,8.35
2019-04-06T14:24:15.486Z,8.63
2019-04-06T14:27:02.875Z,7.05
2019-04-06T14:29:56.091Z,8.70
2019-04-06T14:32:55.165Z,7.83
2019-04-06T14:35:42.305Z,8.80
2019-04-06T14:38:32.292Z,10.65
2019-04-06T14:41:17.970Z,12.70
2019-04-06T14:44:05.916Z,10.50
2019-04-06T14:46:51.372Z,10.93
2019-04-06T14:49:35.038Z,11.78
2019-04-06T14:52:24.708Z,16.32
2019-04-06T14:55:12.494Z,10.60
2019-04-06T14:57:49.256Z,14.93
2019-04-06T15:00:36.870Z,15.13
2019-04-06T15:03:16.027Z,16.85
2019-04-06T15:05:52.816Z,12.55
2019-04-06T15:08:40.177Z,15.45
2019-04-06T15:11:24.726Z,13.65
2019-04-06T15:14:13.776Z,13.58
2019-04-06T15:19:44.691Z,19.70
2019-04-06T15:22:31.667Z,16.70
2019-04-06T15:25:08.167Z,16.02
2019-04-06T15:28:04.474Z,28.23
2019-04-06T15:30:46.440Z,20.52
2019-04-06T15:33:36.473Z,26.50
2019-04-06T15:36:22.389Z,24.07
2019-04-06T15:39:12.618Z,20.92
2019-04-06T15:41:58.029Z,29.35
2019-04-06T15:44:47.969Z,23.92
2019-04-06T15:47:47.306Z,20.75
2019-04-06T15:50:32.995Z,27.42
2019-04-06T15:53:28.810Z,21.65
2019-04-06T15:56:05.742Z,26.15
2019-04-06T15:58:40.971Z,19.05
2019-04-06T16:01:40.190Z,19.05
2019-04-06T16:04:25.969Z,18.95
2019-04-06T16:07:11.617Z,25.55
2019-04-06T16:09:57.708Z,25.60
2019-04-06T16:12:34.541Z,17.30
2019-04-06T16:15:20.559Z,28.25
2019-04-06T16:18:05.518Z,19.82
2019-04-06T16:20:48.750Z,22.20
2019-04-06T16:23:29.384Z,25.65
2019-04-06T16:26:05.829Z,18.10
2019-04-06T16:28:51.485Z,18.20
2019-04-06T16:31:37.511Z,25.77
2019-04-06T16:34:16.507Z,56.08
2019-04-06T16:37:06.393Z,22.97
2019-04-06T16:39:40.759Z,26.68
2019-04-06T16:42:43.079Z,26.85
2019-04-06T16:45:26.164Z,21.52
2019-04-06T16:48:13.152Z,23.38
2019-04-06T16:51:03.036Z,23.15
2019-04-06T16:53:56.427Z,13.32
2019-04-06T16:56:41.965Z,21.02
2019-04-06T16:59:20.865Z,16.60
2019-04-06T17:02:24.385Z,20.80
2019-04-06T17:05:07.752Z,15.72
2019-04-06T17:07:56.163Z,22.30
2019-04-06T17:10:43.313Z,20.12
2019-04-06T17:13:22.241Z,13.58
2019-04-06T17:16:12.208Z,10.07
2019-04-06T17:18:56.130Z,26.57
2019-04-06T17:21:52.209Z,11.80
2019-04-06T17:24:31.723Z,17.05
2019-04-06T17:27:15.101Z,17.05
2019-04-06T17:30:02.192Z,12.80
2019-04-06T17:32:56.231Z,14.03
2019-04-06T17:35:41.622Z,18.52
2019-04-06T17:38:16.968Z,15.43
2019-04-06T17:41:04.316Z,19.23
2019-04-06T17:43:57.579Z,23.92
2019-04-06T17:46:35.704Z,15.18
2019-04-06T17:49:31.836Z,14.85
2019-04-06T17:52:17.594Z,16.17
2019-04-06T17:55:04.908Z,11.03
2019-04-06T17:57:40.643Z,19.55
2019-04-06T18:00:37.088Z,19.20
2019-04-06T18:03:30.558Z,20.05
2019-04-06T18:06:16.441Z,12.88
2019-04-06T18:09:13.053Z,19.62
2019-04-06T18:12:03.096Z,17.05
2019-04-06T18:16:58.794Z,11.50
2019-04-06T18:19:27.394Z,11.75
2019-04-06T18:21:55.678Z,17.77
2019-04-06T18:24:23.958Z,12.15
2019-04-06T18:26:52.294Z,14.15
2019-04-06T18:29:20.635Z,15.10
2019-04-06T18:32:16.313Z,12.95
2019-04-06T18:34:44.588Z,11.90
2019-04-06T18:37:31.795Z,16.67
2019-04-06T18:40:01.742Z,17.17
2019-04-06T18:42:29.986Z,22.25
2019-04-06T18:44:58.745Z,14.30
2019-04-06T18:47:27.549Z,18.50
2019-04-06T18:49:55.927Z,22.70
2019-04-06T18:52:24.093Z,13.13
2019-04-06T18:54:52.273Z,14.78
2019-04-06T18:57:20.927Z,16.65
2019-04-06T18:59:49.268Z,20.37
2019-04-06T19:02:17.707Z,19.55
2019-04-06T19:04:46.462Z,16.67
2019-04-06T19:07:15.323Z,16.02
2019-04-06T19:09:44.131Z,19.07
2019-04-06T19:12:12.321Z,17.73
2019-04-06T19:14:40.766Z,12.53
2019-04-06T19:17:08.910Z,15.45
2019-04-06T19:19:37.406Z,13.53
2019-04-06T19:22:05.821Z,21.82
2019-04-06T19:24:34.103Z,21.07
2019-04-06T19:27:02.422Z,16.07
2019-04-06T19:29:30.556Z,20.25
2019-04-06T19:31:58.960Z,15.40
2019-04-06T19:34:27.414Z,23.22
2019-04-06T19:36:55.741Z,21.33
2019-04-06T19:39:24.183Z,14.60
2019-04-06T19:41:52.628Z,20.70
2019-04-06T19:44:20.902Z,13.18
2019-04-06T19:46:49.088Z,26.82
2019-04-06T19:49:17.863Z,22.75
2019-04-06T19:51:46.583Z,15.83
2019-04-06T19:54:14.877Z,20.75
2019-04-06T19:56:43.258Z,28.00
2019-04-06T19:59:12.962Z,21.30
2019-04-06T20:01:41.456Z,24.55
2019-04-06T20:04:10.151Z,25.65
2019-04-06T20:06:38.279Z,14.65
2019-04-06T20:09:08.539Z,12.65
2019-04-06T20:14:04.144Z,24.77
2019-04-06T20:16:32.348Z,21.30
2019-04-06T20:19:00.675Z,15.88
2019-04-06T20:21:28.816Z,17.50
2019-04-06T20:23:57.235Z,14.73
2019-04-06T20:26:25.784Z,20.17
2019-04-06T20:28:53.952Z,11.95
2019-04-06T20:31:22.186Z,10.50
2019-04-06T20:33:52.368Z,16.52
2019-04-06T20:36:20.491Z,15.72
2019-04-06T20:38:48.717Z,22.93
2019-04-06T20:41:16.926Z,11.80
2019-04-06T20:43:45.312Z,16.17
2019-04-06T20:46:13.477Z,22.00
2019-04-06T20:48:41.648Z,24.85
2019-04-06T20:51:10.509Z,21.05
2019-04-06T20:53:41.823Z,25.80
2019-04-06T20:56:09.961Z,25.10
2019-04-06T20:58:38.341Z,23.20
2019-04-06T21:01:06.645Z,20.60
2019-04-06T21:03:34.838Z,16.82
2019-04-06T21:06:03.085Z,25.30
2019-04-06T21:08:32.023Z,13.45
2019-04-06T21:11:00.347Z,24.77
2019-04-06T21:13:28.597Z,15.95
2019-04-06T21:15:56.764Z,16.62
2019-04-06T21:18:25.308Z,14.28
2019-04-06T21:20:54.271Z,19.62
2019-04-06T21:23:22.862Z,19.40
2019-04-06T21:25:51.959Z,16.90
2019-04-06T21:28:20.778Z,16.12
2019-04-06T21:30:49.118Z,19.30
2019-04-06T21:33:17.265Z,13.90
2019-04-06T21:35:45.817Z,12.40
2019-04-06T21:38:13.993Z,12.70
2019-04-06T21:40:42.147Z,19.85
2019-04-06T21:43:10.382Z,15.78
2019-04-06T21:45:38.698Z,16.32
2019-04-06T21:48:07.517Z,20.52
2019-04-06T21:50:35.719Z,17.65
2019-04-06T21:53:03.871Z,25.05
2019-04-06T21:55:32.307Z,17.07
2019-04-06T21:58:00.565Z,20.77
2019-04-06T22:00:46.565Z,17.07
2019-04-06T22:03:14.791Z,16.75
2019-04-06T22:05:42.974Z,21.57
2019-04-06T22:08:11.805Z,23.83
2019-04-06T22:10:40.097Z,19.12
2019-04-06T22:13:08.437Z,18.25
2019-04-06T22:15:37.162Z,16.57
2019-04-06T22:18:06.129Z,15.30
2019-04-06T22:20:34.553Z,10.25
2019-04-06T22:23:04.184Z,21.40
2019-04-06T22:25:32.353Z,9.10
2019-04-06T22:28:00.783Z,11.60
2019-04-06T22:30:29.000Z,18.92
2019-04-06T22:32:57.340Z,16.27
2019-04-06T22:35:25.702Z,19.62
2019-04-06T22:37:55.371Z,18.32
2019-04-06T22:40:23.842Z,15.72
2019-04-06T22:42:52.723Z,24.82
2019-04-06T22:45:21.929Z,15.70
2019-04-06T22:47:50.759Z,22.48
2019-04-06T22:50:19.170Z,19.80
2019-04-06T22:52:47.792Z,21.12
2019-04-06T22:55:16.435Z,15.63
2019-04-06T22:57:44.721Z,17.45
2019-04-06T23:00:25.206Z,19.02
2019-04-06T23:05:43.983Z,19.65
2019-04-06T23:08:12.110Z,21.82
2019-04-06T23:10:40.920Z,22.40
2019-04-06T23:13:09.057Z,21.37
2019-04-06T23:15:37.238Z,21.12
2019-04-06T23:18:05.854Z,14.18
2019-04-06T23:20:34.613Z,15.68
2019-04-06T23:23:03.760Z,21.27
2019-04-06T23:25:32.340Z,28.12
2019-04-06T23:28:00.990Z,25.15
2019-04-06T23:30:29.302Z,22.58
2019-04-06T23:32:58.089Z,16.17
2019-04-06T23:35:26.492Z,11.43
2019-04-06T23:37:54.966Z,28.95
2019-04-06T23:40:23.186Z,26.82
2019-04-06T23:42:51.462Z,10.13
2019-04-06T23:45:19.700Z,29.80
2019-04-06T23:47:48.344Z,18.35
2019-04-06T23:50:17.010Z,24.67
2019-04-06T23:52:45.182Z,29.57
2019-04-06T23:55:13.529Z,29.42
2019-04-06T23:57:41.684Z,24.82
